sensor_id;sensor_type;location;lat;lon;timestamp;P1;durP1;ratioP1;P2;durP2;ratioP2
12900;SDS011;6518;50.930;5.344;2023-03-05T00:01:33;8.00;;;4.60;;
12900;SDS011;6518;50.930;5.344;2023-03-05T00:04:03;8.57;;;3.43;;
12900;SDS011;6518;50.930;5.344;2023-03-05T00:06:31;13.40;;;4.00;;
12900;SDS011;6518;50.930;5.344;2023-03-05T00:08:59;7.60;;;3.77;;
12900;SDS011;6518;50.930;5.344;2023-03-05T00:11:26;6.50;;;3.50;;
12900;SDS011;6518;50.930;5.344;2023-03-05T00:13:55;6.50;;;3.30;;
12900;SDS011;6518;50.930;5.344;2023-03-05T00:16:23;9.90;;;3.57;;
12900;SDS011;6518;50.930;5.344;2023-03-05T00:18:51;8.73;;;3.77;;
12900;SDS011;6518;50.930;5.344;2023-03-05T00:21:21;10.70;;;4.00;;
12900;SDS011;6518;50.930;5.344;2023-03-05T00:23:49;11.90;;;3.63;;
12900;SDS011;6518;50.930;5.344;2023-03-05T00:26:16;8.57;;;3.20;;
12900;SDS011;6518;50.930;5.344;2023-03-05T00:28:43;6.80;;;3.70;;
12900;SDS011;6518;50.930;5.344;2023-03-05T00:31:13;6.03;;;3.70;;
12900;SDS011;6518;50.930;5.344;2023-03-05T00:33:40;6.67;;;3.43;;
12900;SDS011;6518;50.930;5.344;2023-03-05T00:36:07;7.73;;;3.77;;
12900;SDS011;6518;50.930;5.344;2023-03-05T00:38:36;10.97;;;4.00;;
12900;SDS011;6518;50.930;5.344;2023-03-05T00:41:03;11.37;;;4.27;;
12900;SDS011;6518;50.930;5.344;2023-03-05T00:43:30;9.27;;;4.20;;
12900;SDS011;6518;50.930;5.344;2023-03-05T00:45:57;8.30;;;3.97;;
12900;SDS011;6518;50.930;5.344;2023-03-05T00:48:24;7.00;;;3.90;;
12900;SDS011;6518;50.930;5.344;2023-03-05T00:50:51;10.93;;;4.30;;
12900;SDS011;6518;50.930;5.344;2023-03-05T00:53:17;12.30;;;4.07;;
12900;SDS011;6518;50.930;5.344;2023-03-05T00:55:46;11.03;;;3.80;;
12900;SDS011;6518;50.930;5.344;2023-03-05T00:58:13;8.37;;;3.80;;
12900;SDS011;6518;50.930;5.344;2023-03-05T01:00:40;10.57;;;3.67;;
12900;SDS011;6518;50.930;5.344;2023-03-05T01:03:07;8.10;;;3.87;;
12900;SDS011;6518;50.930;5.344;2023-03-05T01:05:34;8.53;;;4.03;;
12900;SDS011;6518;50.930;5.344;2023-03-05T01:08:01;10.27;;;4.23;;
12900;SDS011;6518;50.930;5.344;2023-03-05T01:10:28;10.87;;;3.73;;
12900;SDS011;6518;50.930;5.344;2023-03-05T01:12:56;11.80;;;4.60;;
12900;SDS011;6518;50.930;5.344;2023-03-05T01:15:23;8.57;;;4.00;;
12900;SDS011;6518;50.930;5.344;2023-03-05T01:17:50;9.07;;;3.73;;
12900;SDS011;6518;50.930;5.344;2023-03-05T01:20:18;9.17;;;4.30;;
12900;SDS011;6518;50.930;5.344;2023-03-05T01:22:46;9.60;;;3.97;;
12900;SDS011;6518;50.930;5.344;2023-03-05T01:25:13;8.30;;;4.27;;
12900;SDS011;6518;50.930;5.344;2023-03-05T01:27:40;10.60;;;4.70;;
12900;SDS011;6518;50.930;5.344;2023-03-05T01:30:09;9.53;;;3.77;;
12900;SDS011;6518;50.930;5.344;2023-03-05T01:32:38;9.23;;;3.43;;
12900;SDS011;6518;50.930;5.344;2023-03-05T01:35:05;9.00;;;3.43;;
12900;SDS011;6518;50.930;5.344;2023-03-05T01:37:33;9.07;;;3.83;;
12900;SDS011;6518;50.930;5.344;2023-03-05T01:40:00;8.77;;;3.20;;
12900;SDS011;6518;50.930;5.344;2023-03-05T01:42:27;10.47;;;3.67;;
12900;SDS011;6518;50.930;5.344;2023-03-05T01:45:01;12.53;;;4.67;;
12900;SDS011;6518;50.930;5.344;2023-03-05T01:47:31;12.30;;;3.97;;
12900;SDS011;6518;50.930;5.344;2023-03-05T01:49:58;11.30;;;3.93;;
12900;SDS011;6518;50.930;5.344;2023-03-05T01:52:25;7.80;;;3.27;;
12900;SDS011;6518;50.930;5.344;2023-03-05T01:54:55;9.47;;;3.60;;
12900;SDS011;6518;50.930;5.344;2023-03-05T01:57:26;12.03;;;4.00;;
12900;SDS011;6518;50.930;5.344;2023-03-05T01:59:57;8.60;;;3.93;;
12900;SDS011;6518;50.930;5.344;2023-03-05T02:02:27;12.27;;;3.97;;
12900;SDS011;6518;50.930;5.344;2023-03-05T02:04:56;8.97;;;3.87;;
12900;SDS011;6518;50.930;5.344;2023-03-05T02:07:28;8.50;;;3.97;;
12900;SDS011;6518;50.930;5.344;2023-03-05T02:09:56;9.53;;;4.23;;
12900;SDS011;6518;50.930;5.344;2023-03-05T02:12:23;13.67;;;4.23;;
12900;SDS011;6518;50.930;5.344;2023-03-05T02:14:50;12.70;;;4.67;;
12900;SDS011;6518;50.930;5.344;2023-03-05T02:17:24;9.00;;;4.20;;
12900;SDS011;6518;50.930;5.344;2023-03-05T02:19:53;9.17;;;4.63;;
12900;SDS011;6518;50.930;5.344;2023-03-05T02:22:28;17.00;;;5.20;;
12900;SDS011;6518;50.930;5.344;2023-03-05T02:24:55;10.37;;;4.67;;
12900;SDS011;6518;50.930;5.344;2023-03-05T02:27:24;12.90;;;5.13;;
12900;SDS011;6518;50.930;5.344;2023-03-05T02:29:59;11.20;;;4.97;;
12900;SDS011;6518;50.930;5.344;2023-03-05T02:32:26;14.97;;;4.70;;
12900;SDS011;6518;50.930;5.344;2023-03-05T02:34:53;13.77;;;5.63;;
12900;SDS011;6518;50.930;5.344;2023-03-05T02:37:20;10.30;;;5.40;;
12900;SDS011;6518;50.930;5.344;2023-03-05T02:39:48;10.73;;;5.03;;
12900;SDS011;6518;50.930;5.344;2023-03-05T02:42:15;13.73;;;5.30;;
12900;SDS011;6518;50.930;5.344;2023-03-05T02:44:42;14.93;;;5.67;;
12900;SDS011;6518;50.930;5.344;2023-03-05T02:47:08;12.37;;;4.87;;
12900;SDS011;6518;50.930;5.344;2023-03-05T02:49:35;9.83;;;4.53;;
12900;SDS011;6518;50.930;5.344;2023-03-05T02:52:02;11.70;;;5.00;;
12900;SDS011;6518;50.930;5.344;2023-03-05T02:54:29;11.73;;;5.13;;
12900;SDS011;6518;50.930;5.344;2023-03-05T02:56:57;10.73;;;4.80;;
12900;SDS011;6518;50.930;5.344;2023-03-05T02:59:24;9.83;;;5.03;;
12900;SDS011;6518;50.930;5.344;2023-03-05T03:01:51;8.80;;;4.87;;
12900;SDS011;6518;50.930;5.344;2023-03-05T03:04:18;10.13;;;5.20;;
12900;SDS011;6518;50.930;5.344;2023-03-05T03:06:44;9.20;;;4.67;;
12900;SDS011;6518;50.930;5.344;2023-03-05T03:09:11;9.97;;;5.07;;
12900;SDS011;6518;50.930;5.344;2023-03-05T03:11:38;11.20;;;5.30;;
12900;SDS011;6518;50.930;5.344;2023-03-05T03:14:06;13.50;;;4.70;;
12900;SDS011;6518;50.930;5.344;2023-03-05T03:16:33;10.20;;;4.87;;
12900;SDS011;6518;50.930;5.344;2023-03-05T03:19:00;9.20;;;4.23;;
12900;SDS011;6518;50.930;5.344;2023-03-05T03:21:27;12.17;;;4.97;;
12900;SDS011;6518;50.930;5.344;2023-03-05T03:23:54;9.33;;;4.50;;
12900;SDS011;6518;50.930;5.344;2023-03-05T03:26:20;10.70;;;4.43;;
12900;SDS011;6518;50.930;5.344;2023-03-05T03:28:47;9.60;;;5.00;;
12900;SDS011;6518;50.930;5.344;2023-03-05T03:31:16;9.10;;;4.50;;
12900;SDS011;6518;50.930;5.344;2023-03-05T03:33:42;9.73;;;4.20;;
12900;SDS011;6518;50.930;5.344;2023-03-05T03:36:10;8.10;;;4.00;;
12900;SDS011;6518;50.930;5.344;2023-03-05T03:38:37;7.43;;;4.20;;
12900;SDS011;6518;50.930;5.344;2023-03-05T03:41:04;10.33;;;4.03;;
12900;SDS011;6518;50.930;5.344;2023-03-05T03:43:31;16.27;;;4.47;;
12900;SDS011;6518;50.930;5.344;2023-03-05T03:45:58;8.37;;;3.93;;
12900;SDS011;6518;50.930;5.344;2023-03-05T03:48:27;12.67;;;4.70;;
12900;SDS011;6518;50.930;5.344;2023-03-05T03:50:54;7.80;;;4.20;;
12900;SDS011;6518;50.930;5.344;2023-03-05T03:53:20;6.30;;;3.43;;
12900;SDS011;6518;50.930;5.344;2023-03-05T03:55:47;6.67;;;3.17;;
12900;SDS011;6518;50.930;5.344;2023-03-05T03:58:14;10.53;;;3.10;;
12900;SDS011;6518;50.930;5.344;2023-03-05T04:00:41;6.60;;;2.67;;
12900;SDS011;6518;50.930;5.344;2023-03-05T04:03:08;8.67;;;3.17;;
12900;SDS011;6518;50.930;5.344;2023-03-05T04:05:36;9.03;;;2.60;;
12900;SDS011;6518;50.930;5.344;2023-03-05T04:08:03;5.07;;;2.87;;
12900;SDS011;6518;50.930;5.344;2023-03-05T04:10:36;9.93;;;3.20;;
12900;SDS011;6518;50.930;5.344;2023-03-05T04:13:02;4.47;;;2.30;;
12900;SDS011;6518;50.930;5.344;2023-03-05T04:15:29;7.43;;;2.83;;
12900;SDS011;6518;50.930;5.344;2023-03-05T04:17:56;6.10;;;2.80;;
12900;SDS011;6518;50.930;5.344;2023-03-05T04:20:23;4.77;;;2.70;;
12900;SDS011;6518;50.930;5.344;2023-03-05T04:22:51;5.07;;;3.00;;
12900;SDS011;6518;50.930;5.344;2023-03-05T04:25:18;6.33;;;2.90;;
12900;SDS011;6518;50.930;5.344;2023-03-05T04:27:45;10.77;;;3.33;;
12900;SDS011;6518;50.930;5.344;2023-03-05T04:30:12;5.27;;;3.00;;
12900;SDS011;6518;50.930;5.344;2023-03-05T04:32:39;8.03;;;3.40;;
12900;SDS011;6518;50.930;5.344;2023-03-05T04:35:07;9.43;;;3.80;;
12900;SDS011;6518;50.930;5.344;2023-03-05T04:37:34;7.50;;;3.83;;
12900;SDS011;6518;50.930;5.344;2023-03-05T04:40:02;8.37;;;3.80;;
12900;SDS011;6518;50.930;5.344;2023-03-05T04:42:30;8.47;;;3.90;;
12900;SDS011;6518;50.930;5.344;2023-03-05T04:44:57;8.83;;;3.83;;
12900;SDS011;6518;50.930;5.344;2023-03-05T04:47:24;6.63;;;3.97;;
12900;SDS011;6518;50.930;5.344;2023-03-05T04:49:51;7.17;;;4.03;;
12900;SDS011;6518;50.930;5.344;2023-03-05T04:52:18;9.57;;;4.03;;
12900;SDS011;6518;50.930;5.344;2023-03-05T04:54:45;7.17;;;4.27;;
12900;SDS011;6518;50.930;5.344;2023-03-05T04:57:13;13.30;;;4.97;;
12900;SDS011;6518;50.930;5.344;2023-03-05T04:59:40;6.83;;;4.30;;
12900;SDS011;6518;50.930;5.344;2023-03-05T05:02:07;11.40;;;4.80;;
12900;SDS011;6518;50.930;5.344;2023-03-05T05:04:34;10.00;;;4.23;;
12900;SDS011;6518;50.930;5.344;2023-03-05T05:07:01;8.90;;;4.83;;
12900;SDS011;6518;50.930;5.344;2023-03-05T05:09:29;8.17;;;4.87;;
12900;SDS011;6518;50.930;5.344;2023-03-05T05:11:56;12.07;;;5.63;;
12900;SDS011;6518;50.930;5.344;2023-03-05T05:14:24;10.97;;;5.30;;
12900;SDS011;6518;50.930;5.344;2023-03-05T05:16:50;11.10;;;5.90;;
12900;SDS011;6518;50.930;5.344;2023-03-05T05:19:17;12.93;;;5.83;;
12900;SDS011;6518;50.930;5.344;2023-03-05T05:21:44;11.83;;;6.40;;
12900;SDS011;6518;50.930;5.344;2023-03-05T05:24:11;16.93;;;6.33;;
12900;SDS011;6518;50.930;5.344;2023-03-05T05:26:38;12.90;;;6.33;;
12900;SDS011;6518;50.930;5.344;2023-03-05T05:29:05;11.57;;;6.57;;
12900;SDS011;6518;50.930;5.344;2023-03-05T05:31:33;12.00;;;6.00;;
12900;SDS011;6518;50.930;5.344;2023-03-05T05:34:00;10.63;;;6.07;;
12900;SDS011;6518;50.930;5.344;2023-03-05T05:36:26;11.03;;;6.67;;
12900;SDS011;6518;50.930;5.344;2023-03-05T05:38:53;11.10;;;6.47;;
12900;SDS011;6518;50.930;5.344;2023-03-05T05:41:20;12.20;;;6.63;;
12900;SDS011;6518;50.930;5.344;2023-03-05T05:43:47;11.47;;;6.67;;
12900;SDS011;6518;50.930;5.344;2023-03-05T05:46:14;10.07;;;6.77;;
12900;SDS011;6518;50.930;5.344;2023-03-05T05:48:43;10.43;;;6.40;;
12900;SDS011;6518;50.930;5.344;2023-03-05T05:51:12;12.97;;;7.20;;
12900;SDS011;6518;50.930;5.344;2023-03-05T05:53:40;12.03;;;7.00;;
12900;SDS011;6518;50.930;5.344;2023-03-05T05:56:08;14.87;;;7.10;;
12900;SDS011;6518;50.930;5.344;2023-03-05T05:58:37;13.03;;;7.60;;
12900;SDS011;6518;50.930;5.344;2023-03-05T06:01:10;10.63;;;7.17;;
12900;SDS011;6518;50.930;5.344;2023-03-05T06:03:38;14.17;;;7.43;;
12900;SDS011;6518;50.930;5.344;2023-03-05T06:06:08;13.73;;;8.20;;
12900;SDS011;6518;50.930;5.344;2023-03-05T06:08:36;11.20;;;7.77;;
12900;SDS011;6518;50.930;5.344;2023-03-05T06:11:03;14.47;;;7.63;;
12900;SDS011;6518;50.930;5.344;2023-03-05T06:13:30;15.70;;;8.27;;
12900;SDS011;6518;50.930;5.344;2023-03-05T06:15:57;11.60;;;7.70;;
12900;SDS011;6518;50.930;5.344;2023-03-05T06:18:25;14.23;;;8.17;;
12900;SDS011;6518;50.930;5.344;2023-03-05T06:20:53;14.37;;;8.00;;
12900;SDS011;6518;50.930;5.344;2023-03-05T06:23:22;13.60;;;8.00;;
12900;SDS011;6518;50.930;5.344;2023-03-05T06:25:49;11.53;;;8.60;;
12900;SDS011;6518;50.930;5.344;2023-03-05T06:28:16;14.33;;;8.67;;
12900;SDS011;6518;50.930;5.344;2023-03-05T06:30:43;12.77;;;8.77;;
12900;SDS011;6518;50.930;5.344;2023-03-05T06:33:10;16.83;;;9.30;;
12900;SDS011;6518;50.930;5.344;2023-03-05T06:35:37;15.93;;;9.30;;
12900;SDS011;6518;50.930;5.344;2023-03-05T06:38:05;14.00;;;10.03;;
12900;SDS011;6518;50.930;5.344;2023-03-05T06:40:33;16.03;;;10.00;;
12900;SDS011;6518;50.930;5.344;2023-03-05T06:43:03;15.00;;;9.83;;
12900;SDS011;6518;50.930;5.344;2023-03-05T06:45:30;14.70;;;10.33;;
12900;SDS011;6518;50.930;5.344;2023-03-05T06:47:56;18.23;;;10.20;;
12900;SDS011;6518;50.930;5.344;2023-03-05T06:50:23;16.97;;;10.50;;
12900;SDS011;6518;50.930;5.344;2023-03-05T06:52:50;15.73;;;10.53;;
12900;SDS011;6518;50.930;5.344;2023-03-05T06:55:17;13.23;;;10.30;;
12900;SDS011;6518;50.930;5.344;2023-03-05T06:57:46;17.30;;;9.93;;
12900;SDS011;6518;50.930;5.344;2023-03-05T07:00:13;14.90;;;10.17;;
12900;SDS011;6518;50.930;5.344;2023-03-05T07:02:40;17.83;;;10.90;;
12900;SDS011;6518;50.930;5.344;2023-03-05T07:05:07;16.13;;;10.23;;
12900;SDS011;6518;50.930;5.344;2023-03-05T07:07:34;17.97;;;11.23;;
12900;SDS011;6518;50.930;5.344;2023-03-05T07:10:01;18.37;;;10.60;;
12900;SDS011;6518;50.930;5.344;2023-03-05T07:12:28;14.70;;;9.97;;
12900;SDS011;6518;50.930;5.344;2023-03-05T07:14:56;19.03;;;10.67;;
12900;SDS011;6518;50.930;5.344;2023-03-05T07:17:23;17.13;;;9.57;;
12900;SDS011;6518;50.930;5.344;2023-03-05T07:19:50;13.03;;;9.43;;
12900;SDS011;6518;50.930;5.344;2023-03-05T07:22:17;15.60;;;9.73;;
12900;SDS011;6518;50.930;5.344;2023-03-05T07:24:43;15.73;;;9.70;;
12900;SDS011;6518;50.930;5.344;2023-03-05T07:27:10;17.63;;;9.90;;
12900;SDS011;6518;50.930;5.344;2023-03-05T07:29:37;17.90;;;10.43;;
12900;SDS011;6518;50.930;5.344;2023-03-05T07:32:06;17.10;;;9.07;;
12900;SDS011;6518;50.930;5.344;2023-03-05T07:34:32;19.60;;;8.97;;
12900;SDS011;6518;50.930;5.344;2023-03-05T07:36:59;16.93;;;9.37;;
12900;SDS011;6518;50.930;5.344;2023-03-05T07:39:26;13.23;;;9.57;;
12900;SDS011;6518;50.930;5.344;2023-03-05T07:41:53;15.37;;;9.10;;
12900;SDS011;6518;50.930;5.344;2023-03-05T07:44:20;15.17;;;8.90;;
12900;SDS011;6518;50.930;5.344;2023-03-05T07:46:46;14.00;;;8.20;;
12900;SDS011;6518;50.930;5.344;2023-03-05T07:49:14;13.93;;;8.20;;
12900;SDS011;6518;50.930;5.344;2023-03-05T07:51:41;17.03;;;8.70;;
12900;SDS011;6518;50.930;5.344;2023-03-05T07:54:08;13.70;;;8.37;;
12900;SDS011;6518;50.930;5.344;2023-03-05T07:56:35;12.17;;;8.00;;
12900;SDS011;6518;50.930;5.344;2023-03-05T07:59:03;12.63;;;7.37;;
12900;SDS011;6518;50.930;5.344;2023-03-05T08:01:32;12.00;;;7.93;;
12900;SDS011;6518;50.930;5.344;2023-03-05T08:03:59;15.70;;;8.23;;
12900;SDS011;6518;50.930;5.344;2023-03-05T08:06:28;12.43;;;7.30;;
12900;SDS011;6518;50.930;5.344;2023-03-05T08:08:55;12.53;;;8.33;;
12900;SDS011;6518;50.930;5.344;2023-03-05T08:11:23;16.40;;;7.67;;
12900;SDS011;6518;50.930;5.344;2023-03-05T08:13:50;12.37;;;7.20;;
12900;SDS011;6518;50.930;5.344;2023-03-05T08:16:17;10.63;;;7.00;;
12900;SDS011;6518;50.930;5.344;2023-03-05T08:18:46;11.37;;;7.23;;
12900;SDS011;6518;50.930;5.344;2023-03-05T08:21:14;13.20;;;6.90;;
12900;SDS011;6518;50.930;5.344;2023-03-05T08:23:44;13.67;;;6.80;;
12900;SDS011;6518;50.930;5.344;2023-03-05T08:26:11;12.07;;;6.70;;
12900;SDS011;6518;50.930;5.344;2023-03-05T08:28:38;14.33;;;6.73;;
12900;SDS011;6518;50.930;5.344;2023-03-05T08:31:07;12.00;;;6.60;;
12900;SDS011;6518;50.930;5.344;2023-03-05T08:33:34;11.60;;;5.63;;
12900;SDS011;6518;50.930;5.344;2023-03-05T08:36:01;9.67;;;4.80;;
12900;SDS011;6518;50.930;5.344;2023-03-05T08:38:28;12.77;;;5.90;;
12900;SDS011;6518;50.930;5.344;2023-03-05T08:40:56;9.67;;;5.50;;
12900;SDS011;6518;50.930;5.344;2023-03-05T08:43:23;9.73;;;5.70;;
12900;SDS011;6518;50.930;5.344;2023-03-05T08:45:50;11.70;;;5.67;;
12900;SDS011;6518;50.930;5.344;2023-03-05T08:48:19;10.53;;;5.23;;
12900;SDS011;6518;50.930;5.344;2023-03-05T08:50:47;10.67;;;5.10;;
12900;SDS011;6518;50.930;5.344;2023-03-05T08:53:15;8.37;;;4.70;;
12900;SDS011;6518;50.930;5.344;2023-03-05T08:55:42;12.67;;;5.23;;
12900;SDS011;6518;50.930;5.344;2023-03-05T08:58:10;12.53;;;5.70;;
12900;SDS011;6518;50.930;5.344;2023-03-05T09:00:38;12.77;;;5.37;;
12900;SDS011;6518;50.930;5.344;2023-03-05T09:03:05;10.17;;;6.00;;
12900;SDS011;6518;50.930;5.344;2023-03-05T09:05:32;9.90;;;5.33;;
12900;SDS011;6518;50.930;5.344;2023-03-05T09:08:00;9.63;;;5.33;;
12900;SDS011;6518;50.930;5.344;2023-03-05T09:10:27;10.10;;;5.80;;
12900;SDS011;6518;50.930;5.344;2023-03-05T09:12:54;10.80;;;5.83;;
12900;SDS011;6518;50.930;5.344;2023-03-05T09:15:22;14.10;;;6.87;;
12900;SDS011;6518;50.930;5.344;2023-03-05T09:17:49;10.40;;;6.97;;
12900;SDS011;6518;50.930;5.344;2023-03-05T09:20:16;9.60;;;6.80;;
12900;SDS011;6518;50.930;5.344;2023-03-05T09:22:43;10.17;;;6.43;;
12900;SDS011;6518;50.930;5.344;2023-03-05T09:25:10;12.07;;;7.17;;
12900;SDS011;6518;50.930;5.344;2023-03-05T09:27:37;11.97;;;6.97;;
12900;SDS011;6518;50.930;5.344;2023-03-05T09:30:05;11.37;;;6.33;;
12900;SDS011;6518;50.930;5.344;2023-03-05T09:32:34;9.07;;;6.87;;
12900;SDS011;6518;50.930;5.344;2023-03-05T09:35:01;7.37;;;6.20;;
12900;SDS011;6518;50.930;5.344;2023-03-05T09:37:28;9.53;;;5.70;;
12900;SDS011;6518;50.930;5.344;2023-03-05T09:39:55;10.93;;;6.40;;
12900;SDS011;6518;50.930;5.344;2023-03-05T09:42:27;10.70;;;7.30;;
12900;SDS011;6518;50.930;5.344;2023-03-05T09:45:07;10.23;;;7.27;;
12900;SDS011;6518;50.930;5.344;2023-03-05T09:47:50;9.23;;;6.70;;
12900;SDS011;6518;50.930;5.344;2023-03-05T09:50:28;10.77;;;7.20;;
12900;SDS011;6518;50.930;5.344;2023-03-05T09:53:03;9.93;;;6.97;;
12900;SDS011;6518;50.930;5.344;2023-03-05T09:55:41;9.00;;;6.13;;
12900;SDS011;6518;50.930;5.344;2023-03-05T09:58:10;8.30;;;6.67;;
12900;SDS011;6518;50.930;5.344;2023-03-05T10:00:40;8.00;;;6.50;;
12900;SDS011;6518;50.930;5.344;2023-03-05T10:03:13;10.20;;;7.33;;
12900;SDS011;6518;50.930;5.344;2023-03-05T10:05:48;8.73;;;6.87;;
12900;SDS011;6518;50.930;5.344;2023-03-05T10:08:21;10.70;;;8.00;;
12900;SDS011;6518;50.930;5.344;2023-03-05T10:10:52;11.23;;;7.63;;
12900;SDS011;6518;50.930;5.344;2023-03-05T10:13:21;9.90;;;7.53;;
12900;SDS011;6518;50.930;5.344;2023-03-05T10:15:51;11.47;;;7.20;;
12900;SDS011;6518;50.930;5.344;2023-03-05T10:18:27;10.80;;;7.43;;
12900;SDS011;6518;50.930;5.344;2023-03-05T10:21:00;8.77;;;6.97;;
12900;SDS011;6518;50.930;5.344;2023-03-05T10:23:36;10.20;;;7.10;;
12900;SDS011;6518;50.930;5.344;2023-03-05T10:26:16;9.47;;;7.07;;
12900;SDS011;6518;50.930;5.344;2023-03-05T10:28:54;10.43;;;6.83;;
12900;SDS011;6518;50.930;5.344;2023-03-05T10:31:40;11.07;;;6.67;;
12900;SDS011;6518;50.930;5.344;2023-03-05T10:34:31;8.53;;;6.53;;
12900;SDS011;6518;50.930;5.344;2023-03-05T10:37:22;9.20;;;5.90;;
12900;SDS011;6518;50.930;5.344;2023-03-05T10:40:07;6.70;;;6.00;;
12900;SDS011;6518;50.930;5.344;2023-03-05T10:42:44;7.00;;;5.97;;
12900;SDS011;6518;50.930;5.344;2023-03-05T10:45:19;7.23;;;5.70;;
12900;SDS011;6518;50.930;5.344;2023-03-05T10:47:50;8.53;;;5.73;;
12900;SDS011;6518;50.930;5.344;2023-03-05T10:50:21;6.33;;;5.67;;
12900;SDS011;6518;50.930;5.344;2023-03-05T10:52:51;7.40;;;5.77;;
12900;SDS011;6518;50.930;5.344;2023-03-05T10:55:29;8.00;;;5.27;;
12900;SDS011;6518;50.930;5.344;2023-03-05T10:57:56;9.73;;;5.30;;
12900;SDS011;6518;50.930;5.344;2023-03-05T11:00:23;6.83;;;5.43;;
12900;SDS011;6518;50.930;5.344;2023-03-05T11:02:53;7.60;;;5.43;;
12900;SDS011;6518;50.930;5.344;2023-03-05T11:05:34;5.83;;;4.93;;
12900;SDS011;6518;50.930;5.344;2023-03-05T11:11:02;7.27;;;4.50;;
12900;SDS011;6518;50.930;5.344;2023-03-05T11:13:50;5.63;;;4.10;;
12900;SDS011;6518;50.930;5.344;2023-03-05T11:16:22;4.77;;;3.77;;
12900;SDS011;6518;50.930;5.344;2023-03-05T11:18:50;4.77;;;3.10;;
12900;SDS011;6518;50.930;5.344;2023-03-05T11:21:43;3.83;;;2.60;;
12900;SDS011;6518;50.930;5.344;2023-03-05T11:24:11;3.80;;;2.37;;
12900;SDS011;6518;50.930;5.344;2023-03-05T11:26:49;4.37;;;2.80;;
12900;SDS011;6518;50.930;5.344;2023-03-05T11:29:18;4.07;;;2.93;;
12900;SDS011;6518;50.930;5.344;2023-03-05T11:31:47;4.83;;;3.13;;
12900;SDS011;6518;50.930;5.344;2023-03-05T11:34:22;5.60;;;3.00;;
12900;SDS011;6518;50.930;5.344;2023-03-05T11:37:03;4.00;;;3.33;;
12900;SDS011;6518;50.930;5.344;2023-03-05T11:39:32;4.50;;;3.37;;
12900;SDS011;6518;50.930;5.344;2023-03-05T11:42:03;3.77;;;3.10;;
12900;SDS011;6518;50.930;5.344;2023-03-05T11:44:33;6.10;;;3.20;;
12900;SDS011;6518;50.930;5.344;2023-03-05T11:47:08;9.13;;;3.33;;
12900;SDS011;6518;50.930;5.344;2023-03-05T11:49:44;4.93;;;3.40;;
12900;SDS011;6518;50.930;5.344;2023-03-05T11:52:15;3.97;;;3.20;;
12900;SDS011;6518;50.930;5.344;2023-03-05T11:54:50;5.03;;;3.27;;
12900;SDS011;6518;50.930;5.344;2023-03-05T11:57:22;4.63;;;4.10;;
12900;SDS011;6518;50.930;5.344;2023-03-05T11:59:49;6.33;;;4.20;;
12900;SDS011;6518;50.930;5.344;2023-03-05T12:02:19;4.97;;;4.20;;
12900;SDS011;6518;50.930;5.344;2023-03-05T12:04:47;5.13;;;3.27;;
12900;SDS011;6518;50.930;5.344;2023-03-05T12:07:17;6.17;;;3.70;;
12900;SDS011;6518;50.930;5.344;2023-03-05T12:09:47;6.50;;;3.30;;
12900;SDS011;6518;50.930;5.344;2023-03-05T12:12:20;5.33;;;3.67;;
12900;SDS011;6518;50.930;5.344;2023-03-05T12:15:02;3.50;;;3.20;;
12900;SDS011;6518;50.930;5.344;2023-03-05T12:17:46;3.10;;;2.80;;
12900;SDS011;6518;50.930;5.344;2023-03-05T12:20:22;5.63;;;3.73;;
12900;SDS011;6518;50.930;5.344;2023-03-05T12:22:59;4.50;;;3.43;;
12900;SDS011;6518;50.930;5.344;2023-03-05T12:25:27;6.93;;;3.63;;
12900;SDS011;6518;50.930;5.344;2023-03-05T12:27:58;4.93;;;3.50;;
12900;SDS011;6518;50.930;5.344;2023-03-05T12:33:33;5.27;;;3.53;;
12900;SDS011;6518;50.930;5.344;2023-03-05T12:38:59;5.70;;;3.03;;
12900;SDS011;6518;50.930;5.344;2023-03-05T12:49:47;6.13;;;4.50;;
12900;SDS011;6518;50.930;5.344;2023-03-05T12:52:20;5.00;;;4.50;;
12900;SDS011;6518;50.930;5.344;2023-03-05T12:54:56;5.80;;;4.27;;
12900;SDS011;6518;50.930;5.344;2023-03-05T12:57:28;5.17;;;4.63;;
12900;SDS011;6518;50.930;5.344;2023-03-05T12:59:57;6.57;;;4.80;;
12900;SDS011;6518;50.930;5.344;2023-03-05T13:02:30;6.10;;;4.83;;
12900;SDS011;6518;50.930;5.344;2023-03-05T13:05:02;5.47;;;4.60;;
12900;SDS011;6518;50.930;5.344;2023-03-05T13:07:33;5.30;;;4.80;;
12900;SDS011;6518;50.930;5.344;2023-03-05T13:10:02;6.87;;;5.17;;
12900;SDS011;6518;50.930;5.344;2023-03-05T13:12:29;6.23;;;4.80;;
12900;SDS011;6518;50.930;5.344;2023-03-05T13:14:57;5.90;;;4.93;;
12900;SDS011;6518;50.930;5.344;2023-03-05T13:17:27;6.37;;;4.23;;
12900;SDS011;6518;50.930;5.344;2023-03-05T13:19:56;5.50;;;4.30;;
12900;SDS011;6518;50.930;5.344;2023-03-05T13:22:24;5.50;;;4.50;;
12900;SDS011;6518;50.930;5.344;2023-03-05T13:25:05;6.80;;;4.47;;
12900;SDS011;6518;50.930;5.344;2023-03-05T13:27:39;5.90;;;3.57;;
12900;SDS011;6518;50.930;5.344;2023-03-05T13:30:18;6.07;;;3.10;;
12900;SDS011;6518;50.930;5.344;2023-03-05T13:32:48;5.20;;;2.83;;
12900;SDS011;6518;50.930;5.344;2023-03-05T13:35:16;5.03;;;3.43;;
12900;SDS011;6518;50.930;5.344;2023-03-05T13:37:44;5.50;;;3.43;;
12900;SDS011;6518;50.930;5.344;2023-03-05T13:40:17;5.53;;;2.87;;
12900;SDS011;6518;50.930;5.344;2023-03-05T13:42:47;4.23;;;2.90;;
12900;SDS011;6518;50.930;5.344;2023-03-05T13:45:24;7.23;;;3.40;;
12900;SDS011;6518;50.930;5.344;2023-03-05T13:47:53;3.63;;;2.40;;
12900;SDS011;6518;50.930;5.344;2023-03-05T13:50:22;4.77;;;2.87;;
12900;SDS011;6518;50.930;5.344;2023-03-05T13:52:53;4.10;;;2.40;;
12900;SDS011;6518;50.930;5.344;2023-03-05T13:55:22;6.53;;;2.47;;
12900;SDS011;6518;50.930;5.344;2023-03-05T13:57:50;5.33;;;2.10;;
12900;SDS011;6518;50.930;5.344;2023-03-05T14:00:24;3.07;;;2.10;;
12900;SDS011;6518;50.930;5.344;2023-03-05T14:02:55;6.77;;;2.50;;
12900;SDS011;6518;50.930;5.344;2023-03-05T14:05:24;4.77;;;2.10;;
12900;SDS011;6518;50.930;5.344;2023-03-05T14:07:51;5.43;;;2.53;;
12900;SDS011;6518;50.930;5.344;2023-03-05T14:10:30;2.87;;;2.07;;
12900;SDS011;6518;50.930;5.344;2023-03-05T14:13:00;4.77;;;2.23;;
12900;SDS011;6518;50.930;5.344;2023-03-05T14:15:30;5.63;;;2.30;;
12900;SDS011;6518;50.930;5.344;2023-03-05T14:20:59;4.80;;;2.50;;
12900;SDS011;6518;50.930;5.344;2023-03-05T14:23:35;3.67;;;2.07;;
12900;SDS011;6518;50.930;5.344;2023-03-05T14:26:18;2.80;;;2.20;;
12900;SDS011;6518;50.930;5.344;2023-03-05T14:28:51;3.00;;;1.97;;
12900;SDS011;6518;50.930;5.344;2023-03-05T14:31:20;8.97;;;2.97;;
12900;SDS011;6518;50.930;5.344;2023-03-05T14:33:49;4.17;;;2.53;;
12900;SDS011;6518;50.930;5.344;2023-03-05T14:36:21;4.87;;;2.50;;
12900;SDS011;6518;50.930;5.344;2023-03-05T14:38:49;5.73;;;2.70;;
12900;SDS011;6518;50.930;5.344;2023-03-05T14:41:30;4.20;;;3.00;;
12900;SDS011;6518;50.930;5.344;2023-03-05T14:44:00;3.77;;;3.40;;
12900;SDS011;6518;50.930;5.344;2023-03-05T14:46:30;3.63;;;3.10;;
12900;SDS011;6518;50.930;5.344;2023-03-05T14:48:57;3.60;;;3.30;;
12900;SDS011;6518;50.930;5.344;2023-03-05T14:51:24;5.63;;;3.80;;
12900;SDS011;6518;50.930;5.344;2023-03-05T14:53:51;5.00;;;3.87;;
12900;SDS011;6518;50.930;5.344;2023-03-05T14:56:21;5.03;;;3.40;;
12900;SDS011;6518;50.930;5.344;2023-03-05T14:58:52;5.93;;;3.70;;
12900;SDS011;6518;50.930;5.344;2023-03-05T15:01:19;5.03;;;4.10;;
12900;SDS011;6518;50.930;5.344;2023-03-05T15:03:46;5.20;;;3.83;;
12900;SDS011;6518;50.930;5.344;2023-03-05T15:06:16;4.87;;;3.90;;
12900;SDS011;6518;50.930;5.344;2023-03-05T15:08:44;7.63;;;4.20;;
12900;SDS011;6518;50.930;5.344;2023-03-05T15:11:11;5.70;;;5.10;;
12900;SDS011;6518;50.930;5.344;2023-03-05T15:13:38;7.00;;;5.10;;
12900;SDS011;6518;50.930;5.344;2023-03-05T15:16:07;6.47;;;5.27;;
12900;SDS011;6518;50.930;5.344;2023-03-05T15:18:37;6.63;;;5.10;;
12900;SDS011;6518;50.930;5.344;2023-03-05T15:21:04;6.93;;;5.10;;
12900;SDS011;6518;50.930;5.344;2023-03-05T15:23:31;8.50;;;5.77;;
12900;SDS011;6518;50.930;5.344;2023-03-05T15:26:01;6.70;;;5.23;;
12900;SDS011;6518;50.930;5.344;2023-03-05T15:28:31;6.97;;;5.60;;